Cardinham, United Kingdom

2:56 PM BST on July 05, 2015 (GMT +0100)
ICORNWAL20 | | Change Station
CLOSE
Current Station
Personal Weather Station
Location: Liskeard, CORNWALL
Elevation: 460 ft
Nearby Weather Stations

Elev 460 ft 50.43 °N, 4.52 °W | Updated 2 seconds ago

Scattered Clouds
Scattered Clouds
64.9 °F
Feels Like 64.9 °F
N
16.1
Wind Variable Wind from West
Gusts 16.1 mph

Today
High -- | Low -- °F
--% Chance of Precip.
Yesterday
High -- | Low -- °F
Precip. -- in
5:13 AM 9:32 PM
Waning Gibbous, 84% visible
Pressure 30.01 in
Visibility 6.2 miles
Clouds Few 1400 ft
Scattered Clouds 4500 ft
Dew Point 56 °F
Humidity 74%
Rainfall 0.00 in
Snow Depth Not available.
UV 7 out of 12
Pollen Not available.
Air Quality Not available.
Flu Activity Not available.
METAR EGTE 051350Z 24016KT 9999 FEW014CB SCT045 21/11 Q1016

More Conditions Fewer Conditions

Pressure 30.01 in
Visibility 6.2 miles
Clouds Few 1400 ft
Scattered Clouds 4500 ft
Dew Point 56 °F
Humidity 74%
Rainfall 0.00 in
Snow Depth Not available.
UV 7 out of 12
Pollen Not available.
Air Quality Not available.
Flu Activity Not available.
METAR EGTE 051350Z 24016KT 9999 FEW014CB SCT045 21/11 Q1016

More Conditions Fewer Conditions

10-Day Weather Forecast

×

Almanac

Astronomy

Jul. 05, 2015 Rise Set
Actual Time
Civil Twilight
Nautical Twilight
Astronomical Twilight
Moon
Length of Visible Light
Length of Day
Tomorrow will be .
, % of the Moon is Illuminated

Today's Extremes

Country Highs Country Lows

Community

WunderPhotos

Upload Photos

1,835,258 photos uploaded!

WunderBlogs® & News

Nearby

Air Quality

  Air Quality AQ Index Pollutant
Not available.

Snow Depth

Station Depth Elevation

Earthquake Activity

City Distance Mag. Time & Date
Minimum magnitude displayed is 2.5.

Coastal Water Temperatures

Place Temperature

Stations

Nearby Weather Stations

Station Location Temp. Windchill Dew Point Humidity Wind Precip. Elev Updated Type